sensor_id;sensor_type;location;lat;lon;timestamp;P1;durP1;ratioP1;P2;durP2;ratioP2
13764;SDS011;6953;48.810;9.204;2022-10-31T00:00:27;0.90;;;0.90;;
13764;SDS011;6953;48.810;9.204;2022-10-31T00:02:52;0.90;;;0.90;;
13764;SDS011;6953;48.810;9.204;2022-10-31T00:05:17;0.80;;;0.80;;
13764;SDS011;6953;48.810;9.204;2022-10-31T00:07:43;0.80;;;0.80;;
13764;SDS011;6953;48.810;9.204;2022-10-31T00:10:08;0.90;;;0.90;;
13764;SDS011;6953;48.810;9.204;2022-10-31T00:12:33;0.80;;;0.80;;
13764;SDS011;6953;48.810;9.204;2022-10-31T00:14:59;0.80;;;0.80;;
13764;SDS011;6953;48.810;9.204;2022-10-31T00:17:24;0.80;;;0.80;;
13764;SDS011;6953;48.810;9.204;2022-10-31T00:19:50;0.90;;;0.90;;
13764;SDS011;6953;48.810;9.204;2022-10-31T00:22:15;0.90;;;0.90;;
13764;SDS011;6953;48.810;9.204;2022-10-31T00:24:40;0.80;;;0.80;;
13764;SDS011;6953;48.810;9.204;2022-10-31T00:27:06;0.90;;;0.90;;
13764;SDS011;6953;48.810;9.204;2022-10-31T00:29:31;0.82;;;0.82;;
13764;SDS011;6953;48.810;9.204;2022-10-31T00:31:56;0.80;;;0.80;;
13764;SDS011;6953;48.810;9.204;2022-10-31T00:34:22;0.90;;;0.90;;
13764;SDS011;6953;48.810;9.204;2022-10-31T00:36:47;0.80;;;0.80;;
13764;SDS011;6953;48.810;9.204;2022-10-31T00:39:12;0.80;;;0.80;;
13764;SDS011;6953;48.810;9.204;2022-10-31T00:41:38;0.80;;;0.80;;
13764;SDS011;6953;48.810;9.204;2022-10-31T00:44:03;0.80;;;0.80;;
13764;SDS011;6953;48.810;9.204;2022-10-31T00:46:29;0.90;;;0.90;;
13764;SDS011;6953;48.810;9.204;2022-10-31T00:48:54;0.90;;;0.90;;
13764;SDS011;6953;48.810;9.204;2022-10-31T00:51:19;0.80;;;0.80;;
13764;SDS011;6953;48.810;9.204;2022-10-31T00:53:45;0.90;;;0.90;;
13764;SDS011;6953;48.810;9.204;2022-10-31T00:56:10;0.90;;;0.90;;
13764;SDS011;6953;48.810;9.204;2022-10-31T00:58:36;0.98;;;0.98;;
13764;SDS011;6953;48.810;9.204;2022-10-31T01:01:01;0.80;;;0.80;;
13764;SDS011;6953;48.810;9.204;2022-10-31T01:03:29;0.90;;;0.90;;
13764;SDS011;6953;48.810;9.204;2022-10-31T01:06:00;0.90;;;0.90;;
13764;SDS011;6953;48.810;9.204;2022-10-31T01:08:26;0.80;;;0.80;;
13764;SDS011;6953;48.810;9.204;2022-10-31T01:11:06;0.80;;;0.80;;
13764;SDS011;6953;48.810;9.204;2022-10-31T01:13:33;0.80;;;0.80;;
13764;SDS011;6953;48.810;9.204;2022-10-31T01:16:00;0.80;;;0.80;;
13764;SDS011;6953;48.810;9.204;2022-10-31T01:18:26;0.90;;;0.90;;
13764;SDS011;6953;48.810;9.204;2022-10-31T01:21:03;0.80;;;0.80;;
13764;SDS011;6953;48.810;9.204;2022-10-31T01:23:48;0.80;;;0.80;;
13764;SDS011;6953;48.810;9.204;2022-10-31T01:26:15;0.77;;;0.77;;
13764;SDS011;6953;48.810;9.204;2022-10-31T01:28:44;0.80;;;0.80;;
13764;SDS011;6953;48.810;9.204;2022-10-31T01:31:18;1.00;;;1.00;;
13764;SDS011;6953;48.810;9.204;2022-10-31T01:33:45;0.80;;;0.80;;
13764;SDS011;6953;48.810;9.204;2022-10-31T01:36:44;0.88;;;0.88;;
13764;SDS011;6953;48.810;9.204;2022-10-31T01:39:04;0.90;;;0.90;;
13764;SDS011;6953;48.810;9.204;2022-10-31T01:41:32;0.80;;;0.80;;
13764;SDS011;6953;48.810;9.204;2022-10-31T01:44:01;0.90;;;0.90;;
13764;SDS011;6953;48.810;9.204;2022-10-31T01:49:28;1.00;;;1.00;;
13764;SDS011;6953;48.810;9.204;2022-10-31T01:52:10;0.93;;;0.93;;
13764;SDS011;6953;48.810;9.204;2022-10-31T01:54:42;1.00;;;1.00;;
13764;SDS011;6953;48.810;9.204;2022-10-31T01:57:12;0.90;;;0.90;;
13764;SDS011;6953;48.810;9.204;2022-10-31T01:59:41;0.90;;;0.90;;
13764;SDS011;6953;48.810;9.204;2022-10-31T02:02:10;0.70;;;0.70;;
13764;SDS011;6953;48.810;9.204;2022-10-31T02:04:36;0.90;;;0.90;;
13764;SDS011;6953;48.810;9.204;2022-10-31T02:07:02;0.90;;;0.90;;
13764;SDS011;6953;48.810;9.204;2022-10-31T02:09:39;0.80;;;0.80;;
13764;SDS011;6953;48.810;9.204;2022-10-31T02:12:05;0.80;;;0.80;;
13764;SDS011;6953;48.810;9.204;2022-10-31T02:14:34;0.80;;;0.80;;
13764;SDS011;6953;48.810;9.204;2022-10-31T02:17:01;0.80;;;0.80;;
13764;SDS011;6953;48.810;9.204;2022-10-31T02:22:17;0.88;;;0.88;;
13764;SDS011;6953;48.810;9.204;2022-10-31T02:24:58;0.80;;;0.80;;
13764;SDS011;6953;48.810;9.204;2022-10-31T02:27:52;1.00;;;1.00;;
13764;SDS011;6953;48.810;9.204;2022-10-31T02:30:21;1.00;;;1.00;;
13764;SDS011;6953;48.810;9.204;2022-10-31T02:32:54;0.88;;;0.88;;
13764;SDS011;6953;48.810;9.204;2022-10-31T02:40:40;0.80;;;0.80;;
13764;SDS011;6953;48.810;9.204;2022-10-31T02:49:27;1.00;;;1.00;;
13764;SDS011;6953;48.810;9.204;2022-10-31T02:51:59;0.90;;;0.90;;
13764;SDS011;6953;48.810;9.204;2022-10-31T02:54:25;0.90;;;0.90;;
13764;SDS011;6953;48.810;9.204;2022-10-31T02:57:00;0.90;;;0.90;;
13764;SDS011;6953;48.810;9.204;2022-10-31T02:59:29;0.90;;;0.90;;
13764;SDS011;6953;48.810;9.204;2022-10-31T03:02:18;0.90;;;0.90;;
13764;SDS011;6953;48.810;9.204;2022-10-31T03:15:39;0.90;;;0.90;;
13764;SDS011;6953;48.810;9.204;2022-10-31T03:21:13;1.00;;;1.00;;
13764;SDS011;6953;48.810;9.204;2022-10-31T03:23:41;0.90;;;0.90;;
13764;SDS011;6953;48.810;9.204;2022-10-31T03:26:09;1.00;;;1.00;;
13764;SDS011;6953;48.810;9.204;2022-10-31T03:28:49;1.00;;;1.00;;
13764;SDS011;6953;48.810;9.204;2022-10-31T03:31:20;1.00;;;1.00;;
13764;SDS011;6953;48.810;9.204;2022-10-31T03:33:51;0.90;;;0.90;;
13764;SDS011;6953;48.810;9.204;2022-10-31T03:36:18;1.00;;;1.00;;
13764;SDS011;6953;48.810;9.204;2022-10-31T03:38:45;0.90;;;0.90;;
13764;SDS011;6953;48.810;9.204;2022-10-31T03:41:13;1.00;;;1.00;;
13764;SDS011;6953;48.810;9.204;2022-10-31T03:43:45;0.95;;;0.95;;
13764;SDS011;6953;48.810;9.204;2022-10-31T03:46:16;0.90;;;0.90;;
13764;SDS011;6953;48.810;9.204;2022-10-31T03:48:42;1.00;;;1.00;;
13764;SDS011;6953;48.810;9.204;2022-10-31T03:53:59;0.90;;;0.90;;
13764;SDS011;6953;48.810;9.204;2022-10-31T03:56:53;0.88;;;0.88;;
13764;SDS011;6953;48.810;9.204;2022-10-31T03:59:24;0.80;;;0.80;;
13764;SDS011;6953;48.810;9.204;2022-10-31T04:01:57;0.90;;;0.90;;
13764;SDS011;6953;48.810;9.204;2022-10-31T04:04:27;1.00;;;1.00;;
13764;SDS011;6953;48.810;9.204;2022-10-31T04:06:55;1.00;;;1.00;;
13764;SDS011;6953;48.810;9.204;2022-10-31T04:09:23;0.90;;;0.90;;
13764;SDS011;6953;48.810;9.204;2022-10-31T04:11:51;0.90;;;0.90;;
13764;SDS011;6953;48.810;9.204;2022-10-31T04:14:19;0.73;;;0.73;;
13764;SDS011;6953;48.810;9.204;2022-10-31T04:16:47;0.82;;;0.82;;
13764;SDS011;6953;48.810;9.204;2022-10-31T04:19:12;0.90;;;0.90;;
13764;SDS011;6953;48.810;9.204;2022-10-31T04:21:39;0.90;;;0.90;;
13764;SDS011;6953;48.810;9.204;2022-10-31T04:24:04;0.80;;;0.80;;
13764;SDS011;6953;48.810;9.204;2022-10-31T04:26:30;0.90;;;0.90;;
13764;SDS011;6953;48.810;9.204;2022-10-31T04:28:55;0.95;;;0.95;;
13764;SDS011;6953;48.810;9.204;2022-10-31T04:31:21;1.00;;;1.00;;
13764;SDS011;6953;48.810;9.204;2022-10-31T04:33:46;0.90;;;0.90;;
13764;SDS011;6953;48.810;9.204;2022-10-31T04:36:11;1.00;;;1.00;;
13764;SDS011;6953;48.810;9.204;2022-10-31T04:38:37;0.90;;;0.90;;
13764;SDS011;6953;48.810;9.204;2022-10-31T04:41:02;1.10;;;1.10;;
13764;SDS011;6953;48.810;9.204;2022-10-31T04:43:28;0.90;;;0.90;;
13764;SDS011;6953;48.810;9.204;2022-10-31T04:45:53;0.90;;;0.90;;
13764;SDS011;6953;48.810;9.204;2022-10-31T04:48:19;1.00;;;1.00;;
13764;SDS011;6953;48.810;9.204;2022-10-31T04:50:44;1.00;;;1.00;;
13764;SDS011;6953;48.810;9.204;2022-10-31T04:53:09;1.00;;;1.00;;
13764;SDS011;6953;48.810;9.204;2022-10-31T04:55:35;1.05;;;1.05;;
13764;SDS011;6953;48.810;9.204;2022-10-31T04:58:01;1.10;;;1.10;;
13764;SDS011;6953;48.810;9.204;2022-10-31T05:00:26;1.00;;;1.00;;
13764;SDS011;6953;48.810;9.204;2022-10-31T05:02:53;1.13;;;1.13;;
13764;SDS011;6953;48.810;9.204;2022-10-31T05:05:21;1.10;;;1.10;;
13764;SDS011;6953;48.810;9.204;2022-10-31T05:07:48;1.00;;;1.00;;
13764;SDS011;6953;48.810;9.204;2022-10-31T05:10:16;1.00;;;1.00;;
13764;SDS011;6953;48.810;9.204;2022-10-31T05:12:47;1.00;;;1.00;;
13764;SDS011;6953;48.810;9.204;2022-10-31T05:15:14;1.10;;;1.10;;
13764;SDS011;6953;48.810;9.204;2022-10-31T05:17:39;1.00;;;1.00;;
13764;SDS011;6953;48.810;9.204;2022-10-31T05:20:05;1.10;;;1.10;;
13764;SDS011;6953;48.810;9.204;2022-10-31T05:22:30;0.90;;;0.90;;
13764;SDS011;6953;48.810;9.204;2022-10-31T05:24:56;1.10;;;1.10;;
13764;SDS011;6953;48.810;9.204;2022-10-31T05:27:21;1.10;;;1.10;;
13764;SDS011;6953;48.810;9.204;2022-10-31T05:29:46;0.90;;;0.90;;
13764;SDS011;6953;48.810;9.204;2022-10-31T05:32:12;1.10;;;1.10;;
13764;SDS011;6953;48.810;9.204;2022-10-31T05:34:37;1.10;;;1.10;;
13764;SDS011;6953;48.810;9.204;2022-10-31T05:37:02;1.10;;;1.10;;
13764;SDS011;6953;48.810;9.204;2022-10-31T05:39:28;1.10;;;1.10;;
13764;SDS011;6953;48.810;9.204;2022-10-31T05:41:53;1.10;;;1.10;;
13764;SDS011;6953;48.810;9.204;2022-10-31T05:44:18;1.10;;;1.10;;
13764;SDS011;6953;48.810;9.204;2022-10-31T05:46:45;1.00;;;1.00;;
13764;SDS011;6953;48.810;9.204;2022-10-31T05:49:11;1.20;;;1.20;;
13764;SDS011;6953;48.810;9.204;2022-10-31T05:51:36;1.10;;;1.10;;
13764;SDS011;6953;48.810;9.204;2022-10-31T05:54:02;1.10;;;1.10;;
13764;SDS011;6953;48.810;9.204;2022-10-31T05:56:27;0.85;;;0.85;;
13764;SDS011;6953;48.810;9.204;2022-10-31T05:58:52;1.00;;;1.00;;
13764;SDS011;6953;48.810;9.204;2022-10-31T06:01:18;1.00;;;1.00;;
13764;SDS011;6953;48.810;9.204;2022-10-31T06:03:43;0.80;;;0.80;;
13764;SDS011;6953;48.810;9.204;2022-10-31T06:06:08;1.00;;;1.00;;
13764;SDS011;6953;48.810;9.204;2022-10-31T06:08:35;0.90;;;0.90;;
13764;SDS011;6953;48.810;9.204;2022-10-31T06:11:01;0.80;;;0.80;;
13764;SDS011;6953;48.810;9.204;2022-10-31T06:13:26;0.93;;;0.93;;
13764;SDS011;6953;48.810;9.204;2022-10-31T06:15:51;0.90;;;0.90;;
13764;SDS011;6953;48.810;9.204;2022-10-31T06:18:16;0.82;;;0.82;;
13764;SDS011;6953;48.810;9.204;2022-10-31T06:20:42;0.80;;;0.80;;
13764;SDS011;6953;48.810;9.204;2022-10-31T06:23:07;1.00;;;1.00;;
13764;SDS011;6953;48.810;9.204;2022-10-31T06:25:33;0.90;;;0.90;;
13764;SDS011;6953;48.810;9.204;2022-10-31T06:27:58;0.90;;;0.90;;
13764;SDS011;6953;48.810;9.204;2022-10-31T06:30:24;0.80;;;0.80;;
13764;SDS011;6953;48.810;9.204;2022-10-31T06:32:50;0.95;;;0.95;;
13764;SDS011;6953;48.810;9.204;2022-10-31T06:35:15;0.80;;;0.80;;
13764;SDS011;6953;48.810;9.204;2022-10-31T06:37:40;0.90;;;0.90;;
13764;SDS011;6953;48.810;9.204;2022-10-31T06:40:06;0.88;;;0.88;;
13764;SDS011;6953;48.810;9.204;2022-10-31T06:42:32;1.00;;;1.00;;
13764;SDS011;6953;48.810;9.204;2022-10-31T06:44:57;0.80;;;0.80;;
13764;SDS011;6953;48.810;9.204;2022-10-31T06:47:22;0.77;;;0.77;;
13764;SDS011;6953;48.810;9.204;2022-10-31T06:49:48;0.90;;;0.90;;
13764;SDS011;6953;48.810;9.204;2022-10-31T06:52:13;1.00;;;1.00;;
13764;SDS011;6953;48.810;9.204;2022-10-31T06:54:38;1.00;;;1.00;;
13764;SDS011;6953;48.810;9.204;2022-10-31T06:57:04;1.00;;;1.00;;
13764;SDS011;6953;48.810;9.204;2022-10-31T06:59:29;0.88;;;0.88;;
13764;SDS011;6953;48.810;9.204;2022-10-31T07:01:54;0.88;;;0.88;;
13764;SDS011;6953;48.810;9.204;2022-10-31T07:04:20;0.80;;;0.80;;
13764;SDS011;6953;48.810;9.204;2022-10-31T07:06:45;0.80;;;0.80;;
13764;SDS011;6953;48.810;9.204;2022-10-31T07:09:10;0.80;;;0.80;;
13764;SDS011;6953;48.810;9.204;2022-10-31T07:11:36;0.80;;;0.80;;
13764;SDS011;6953;48.810;9.204;2022-10-31T07:14:01;0.70;;;0.70;;
13764;SDS011;6953;48.810;9.204;2022-10-31T07:16:27;0.80;;;0.80;;
13764;SDS011;6953;48.810;9.204;2022-10-31T07:18:52;0.70;;;0.70;;
13764;SDS011;6953;48.810;9.204;2022-10-31T07:21:17;0.70;;;0.70;;
13764;SDS011;6953;48.810;9.204;2022-10-31T07:23:43;0.70;;;0.70;;
13764;SDS011;6953;48.810;9.204;2022-10-31T07:26:09;0.70;;;0.70;;
13764;SDS011;6953;48.810;9.204;2022-10-31T07:28:35;0.77;;;0.77;;
13764;SDS011;6953;48.810;9.204;2022-10-31T07:31:00;0.70;;;0.70;;
13764;SDS011;6953;48.810;9.204;2022-10-31T07:33:25;0.60;;;0.60;;
13764;SDS011;6953;48.810;9.204;2022-10-31T07:35:51;0.57;;;0.57;;
13764;SDS011;6953;48.810;9.204;2022-10-31T07:38:17;0.60;;;0.60;;
13764;SDS011;6953;48.810;9.204;2022-10-31T07:40:43;0.57;;;0.57;;
13764;SDS011;6953;48.810;9.204;2022-10-31T07:43:10;0.60;;;0.60;;
13764;SDS011;6953;48.810;9.204;2022-10-31T07:45:37;0.70;;;0.70;;
13764;SDS011;6953;48.810;9.204;2022-10-31T07:48:02;0.68;;;0.68;;
13764;SDS011;6953;48.810;9.204;2022-10-31T07:50:29;0.60;;;0.60;;
13764;SDS011;6953;48.810;9.204;2022-10-31T07:52:59;0.60;;;0.60;;
13764;SDS011;6953;48.810;9.204;2022-10-31T07:55:25;0.50;;;0.50;;
13764;SDS011;6953;48.810;9.204;2022-10-31T08:00:46;0.60;;;0.60;;
13764;SDS011;6953;48.810;9.204;2022-10-31T08:03:13;0.50;;;0.50;;
13764;SDS011;6953;48.810;9.204;2022-10-31T08:05:40;0.50;;;0.50;;
13764;SDS011;6953;48.810;9.204;2022-10-31T08:08:06;0.43;;;0.43;;
13764;SDS011;6953;48.810;9.204;2022-10-31T08:10:33;0.35;;;0.35;;
13764;SDS011;6953;48.810;9.204;2022-10-31T08:13:09;0.40;;;0.40;;
13764;SDS011;6953;48.810;9.204;2022-10-31T08:15:36;0.45;;;0.45;;
13764;SDS011;6953;48.810;9.204;2022-10-31T08:18:04;0.40;;;0.40;;
13764;SDS011;6953;48.810;9.204;2022-10-31T08:20:30;0.47;;;0.47;;
13764;SDS011;6953;48.810;9.204;2022-10-31T08:22:56;0.40;;;0.40;;
13764;SDS011;6953;48.810;9.204;2022-10-31T08:25:24;0.50;;;0.50;;
13764;SDS011;6953;48.810;9.204;2022-10-31T08:27:51;0.40;;;0.40;;
13764;SDS011;6953;48.810;9.204;2022-10-31T08:30:18;0.50;;;0.50;;
13764;SDS011;6953;48.810;9.204;2022-10-31T08:32:45;0.60;;;0.60;;
13764;SDS011;6953;48.810;9.204;2022-10-31T08:35:10;0.50;;;0.50;;
13764;SDS011;6953;48.810;9.204;2022-10-31T08:37:36;0.50;;;0.50;;
13764;SDS011;6953;48.810;9.204;2022-10-31T08:40:01;0.50;;;0.50;;
13764;SDS011;6953;48.810;9.204;2022-10-31T08:42:26;0.50;;;0.50;;
13764;SDS011;6953;48.810;9.204;2022-10-31T08:44:52;0.40;;;0.40;;
13764;SDS011;6953;48.810;9.204;2022-10-31T08:47:17;0.45;;;0.45;;
13764;SDS011;6953;48.810;9.204;2022-10-31T08:49:42;0.30;;;0.30;;
13764;SDS011;6953;48.810;9.204;2022-10-31T08:52:08;0.40;;;0.40;;
13764;SDS011;6953;48.810;9.204;2022-10-31T08:54:33;0.50;;;0.50;;
13764;SDS011;6953;48.810;9.204;2022-10-31T08:56:59;0.40;;;0.40;;
13764;SDS011;6953;48.810;9.204;2022-10-31T08:59:24;0.40;;;0.40;;
13764;SDS011;6953;48.810;9.204;2022-10-31T09:01:49;0.38;;;0.38;;
13764;SDS011;6953;48.810;9.204;2022-10-31T09:04:15;0.40;;;0.40;;
13764;SDS011;6953;48.810;9.204;2022-10-31T09:06:40;0.40;;;0.40;;
13764;SDS011;6953;48.810;9.204;2022-10-31T09:09:06;0.40;;;0.40;;
13764;SDS011;6953;48.810;9.204;2022-10-31T09:11:31;0.40;;;0.40;;
13764;SDS011;6953;48.810;9.204;2022-10-31T09:13:56;0.40;;;0.40;;
13764;SDS011;6953;48.810;9.204;2022-10-31T09:16:22;0.40;;;0.40;;
13764;SDS011;6953;48.810;9.204;2022-10-31T09:18:47;0.40;;;0.40;;
13764;SDS011;6953;48.810;9.204;2022-10-31T09:21:12;0.38;;;0.38;;
13764;SDS011;6953;48.810;9.204;2022-10-31T09:23:38;0.30;;;0.30;;
13764;SDS011;6953;48.810;9.204;2022-10-31T09:26:03;0.40;;;0.40;;
13764;SDS011;6953;48.810;9.204;2022-10-31T09:28:29;0.40;;;0.40;;
13764;SDS011;6953;48.810;9.204;2022-10-31T09:30:54;0.35;;;0.35;;
13764;SDS011;6953;48.810;9.204;2022-10-31T09:33:20;0.40;;;0.40;;
13764;SDS011;6953;48.810;9.204;2022-10-31T09:35:46;0.40;;;0.40;;
13764;SDS011;6953;48.810;9.204;2022-10-31T09:38:12;0.40;;;0.40;;
13764;SDS011;6953;48.810;9.204;2022-10-31T09:40:43;0.30;;;0.30;;
13764;SDS011;6953;48.810;9.204;2022-10-31T09:46:11;0.40;;;0.40;;
13764;SDS011;6953;48.810;9.204;2022-10-31T09:51:48;0.30;;;0.30;;
13764;SDS011;6953;48.810;9.204;2022-10-31T09:54:21;0.35;;;0.35;;
13764;SDS011;6953;48.810;9.204;2022-10-31T09:56:55;0.30;;;0.30;;
13764;SDS011;6953;48.810;9.204;2022-10-31T09:59:44;0.20;;;0.20;;
13764;SDS011;6953;48.810;9.204;2022-10-31T10:09:53;0.30;;;0.30;;
13764;SDS011;6953;48.810;9.204;2022-10-31T10:12:24;0.30;;;0.30;;
13764;SDS011;6953;48.810;9.204;2022-10-31T10:23:38;0.30;;;0.30;;
13764;SDS011;6953;48.810;9.204;2022-10-31T10:28:38;0.30;;;0.30;;
13764;SDS011;6953;48.810;9.204;2022-10-31T10:33:36;0.30;;;0.30;;
13764;SDS011;6953;48.810;9.204;2022-10-31T10:36:13;0.30;;;0.30;;
13764;SDS011;6953;48.810;9.204;2022-10-31T10:38:52;0.20;;;0.20;;
13764;SDS011;6953;48.810;9.204;2022-10-31T10:41:19;0.20;;;0.20;;
13764;SDS011;6953;48.810;9.204;2022-10-31T10:43:50;0.28;;;0.28;;
13764;SDS011;6953;48.810;9.204;2022-10-31T10:46:18;0.30;;;0.30;;
13764;SDS011;6953;48.810;9.204;2022-10-31T10:49:42;0.30;;;0.30;;
13764;SDS011;6953;48.810;9.204;2022-10-31T10:54:53;0.20;;;0.20;;
13764;SDS011;6953;48.810;9.204;2022-10-31T11:00:21;0.30;;;0.30;;
13764;SDS011;6953;48.810;9.204;2022-10-31T11:02:51;0.30;;;0.30;;
13764;SDS011;6953;48.810;9.204;2022-10-31T11:07:53;0.30;;;0.30;;
13764;SDS011;6953;48.810;9.204;2022-10-31T11:10:18;0.30;;;0.30;;
13764;SDS011;6953;48.810;9.204;2022-10-31T11:12:46;0.30;;;0.30;;
13764;SDS011;6953;48.810;9.204;2022-10-31T11:15:27;0.30;;;0.30;;
13764;SDS011;6953;48.810;9.204;2022-10-31T11:17:56;0.30;;;0.30;;
13764;SDS011;6953;48.810;9.204;2022-10-31T11:23:16;0.30;;;0.30;;
13764;SDS011;6953;48.810;9.204;2022-10-31T11:25:51;0.30;;;0.30;;
13764;SDS011;6953;48.810;9.204;2022-10-31T11:28:20;0.30;;;0.30;;
13764;SDS011;6953;48.810;9.204;2022-10-31T11:31:01;0.22;;;0.22;;
13764;SDS011;6953;48.810;9.204;2022-10-31T11:33:38;0.20;;;0.20;;
13764;SDS011;6953;48.810;9.204;2022-10-31T11:36:18;0.20;;;0.20;;
13764;SDS011;6953;48.810;9.204;2022-10-31T11:38:48;0.20;;;0.20;;
13764;SDS011;6953;48.810;9.204;2022-10-31T11:41:15;0.10;;;0.10;;
13764;SDS011;6953;48.810;9.204;2022-10-31T11:43:52;0.20;;;0.20;;
13764;SDS011;6953;48.810;9.204;2022-10-31T11:46:26;0.10;;;0.10;;
13764;SDS011;6953;48.810;9.204;2022-10-31T11:48:55;0.20;;;0.20;;
13764;SDS011;6953;48.810;9.204;2022-10-31T11:51:25;0.30;;;0.30;;
13764;SDS011;6953;48.810;9.204;2022-10-31T11:53:55;0.00;;;0.00;;
13764;SDS011;6953;48.810;9.204;2022-10-31T11:56:22;0.10;;;0.10;;
13764;SDS011;6953;48.810;9.204;2022-10-31T11:58:55;0.00;;;0.00;;
13764;SDS011;6953;48.810;9.204;2022-10-31T12:01:29;0.10;;;0.10;;
13764;SDS011;6953;48.810;9.204;2022-10-31T12:06:33;0.10;;;0.10;;
13764;SDS011;6953;48.810;9.204;2022-10-31T12:08:59;0.10;;;0.10;;
13764;SDS011;6953;48.810;9.204;2022-10-31T12:11:41;0.10;;;0.10;;
13764;SDS011;6953;48.810;9.204;2022-10-31T12:16:51;0.08;;;0.08;;
13764;SDS011;6953;48.810;9.204;2022-10-31T12:46:52;0.10;;;0.10;;
13764;SDS011;6953;48.810;9.204;2022-10-31T12:52:54;0.10;;;0.10;;
13764;SDS011;6953;48.810;9.204;2022-10-31T12:58:03;0.10;;;0.10;;
13764;SDS011;6953;48.810;9.204;2022-10-31T13:01:01;0.28;;;0.28;;
13764;SDS011;6953;48.810;9.204;2022-10-31T13:06:32;0.20;;;0.20;;
13764;SDS011;6953;48.810;9.204;2022-10-31T13:09:07;0.30;;;0.30;;
13764;SDS011;6953;48.810;9.204;2022-10-31T13:11:45;0.30;;;0.30;;
13764;SDS011;6953;48.810;9.204;2022-10-31T13:14:19;0.22;;;0.22;;
13764;SDS011;6953;48.810;9.204;2022-10-31T13:16:51;0.30;;;0.30;;
13764;SDS011;6953;48.810;9.204;2022-10-31T13:19:19;0.25;;;0.25;;
13764;SDS011;6953;48.810;9.204;2022-10-31T13:30:15;0.30;;;0.30;;
13764;SDS011;6953;48.810;9.204;2022-10-31T13:35:16;0.30;;;0.30;;
13764;SDS011;6953;48.810;9.204;2022-10-31T13:37:49;0.30;;;0.30;;
13764;SDS011;6953;48.810;9.204;2022-10-31T13:43:26;0.30;;;0.30;;
13764;SDS011;6953;48.810;9.204;2022-10-31T13:46:01;0.35;;;0.35;;
13764;SDS011;6953;48.810;9.204;2022-10-31T13:48:37;0.30;;;0.30;;
13764;SDS011;6953;48.810;9.204;2022-10-31T13:51:08;0.20;;;0.20;;
13764;SDS011;6953;48.810;9.204;2022-10-31T14:01:33;0.30;;;0.30;;
13764;SDS011;6953;48.810;9.204;2022-10-31T14:12:01;0.20;;;0.20;;
13764;SDS011;6953;48.810;9.204;2022-10-31T14:14:31;0.30;;;0.30;;
13764;SDS011;6953;48.810;9.204;2022-10-31T14:17:12;0.30;;;0.30;;
13764;SDS011;6953;48.810;9.204;2022-10-31T14:19:55;0.30;;;0.30;;
13764;SDS011;6953;48.810;9.204;2022-10-31T14:22:41;0.30;;;0.30;;
13764;SDS011;6953;48.810;9.204;2022-10-31T14:27:52;0.30;;;0.30;;
13764;SDS011;6953;48.810;9.204;2022-10-31T14:30:19;0.30;;;0.30;;
13764;SDS011;6953;48.810;9.204;2022-10-31T14:32:54;0.30;;;0.30;;
13764;SDS011;6953;48.810;9.204;2022-10-31T14:35:25;0.30;;;0.30;;
13764;SDS011;6953;48.810;9.204;2022-10-31T14:38:16;0.30;;;0.30;;
13764;SDS011;6953;48.810;9.204;2022-10-31T14:41:06;0.40;;;0.40;;
13764;SDS011;6953;48.810;9.204;2022-10-31T14:52:16;0.35;;;0.35;;
13764;SDS011;6953;48.810;9.204;2022-10-31T14:54:45;0.43;;;0.43;;
13764;SDS011;6953;48.810;9.204;2022-10-31T14:59:44;0.40;;;0.40;;
13764;SDS011;6953;48.810;9.204;2022-10-31T15:02:15;0.35;;;0.35;;
13764;SDS011;6953;48.810;9.204;2022-10-31T15:04:51;0.40;;;0.40;;
13764;SDS011;6953;48.810;9.204;2022-10-31T15:07:23;0.40;;;0.40;;
13764;SDS011;6953;48.810;9.204;2022-10-31T15:10:00;0.40;;;0.40;;
13764;SDS011;6953;48.810;9.204;2022-10-31T15:12:28;0.40;;;0.40;;
13764;SDS011;6953;48.810;9.204;2022-10-31T15:15:16;0.40;;;0.40;;
13764;SDS011;6953;48.810;9.204;2022-10-31T15:17:45;0.40;;;0.40;;
13764;SDS011;6953;48.810;9.204;2022-10-31T15:20:19;0.40;;;0.40;;
13764;SDS011;6953;48.810;9.204;2022-10-31T15:22:48;0.50;;;0.50;;
13764;SDS011;6953;48.810;9.204;2022-10-31T15:25:23;0.40;;;0.40;;
13764;SDS011;6953;48.810;9.204;2022-10-31T15:27:52;0.40;;;0.40;;
13764;SDS011;6953;48.810;9.204;2022-10-31T15:30:24;0.50;;;0.50;;
13764;SDS011;6953;48.810;9.204;2022-10-31T15:32:51;0.40;;;0.40;;
13764;SDS011;6953;48.810;9.204;2022-10-31T15:35:25;0.50;;;0.50;;
13764;SDS011;6953;48.810;9.204;2022-10-31T15:37:52;0.50;;;0.50;;
13764;SDS011;6953;48.810;9.204;2022-10-31T15:40:19;0.50;;;0.50;;
13764;SDS011;6953;48.810;9.204;2022-10-31T15:42:51;0.50;;;0.50;;
13764;SDS011;6953;48.810;9.204;2022-10-31T15:45:23;0.50;;;0.50;;
13764;SDS011;6953;48.810;9.204;2022-10-31T15:50:27;0.50;;;0.50;;
13764;SDS011;6953;48.810;9.204;2022-10-31T15:52:52;0.40;;;0.40;;
13764;SDS011;6953;48.810;9.204;2022-10-31T15:55:19;0.50;;;0.50;;
13764;SDS011;6953;48.810;9.204;2022-10-31T15:57:53;0.50;;;0.50;;
13764;SDS011;6953;48.810;9.204;2022-10-31T16:00:23;0.50;;;0.50;;
13764;SDS011;6953;48.810;9.204;2022-10-31T16:10:53;0.50;;;0.50;;
13764;SDS011;6953;48.810;9.204;2022-10-31T16:13:20;0.50;;;0.50;;
13764;SDS011;6953;48.810;9.204;2022-10-31T16:15:52;0.50;;;0.50;;
13764;SDS011;6953;48.810;9.204;2022-10-31T16:18:20;0.50;;;0.50;;
13764;SDS011;6953;48.810;9.204;2022-10-31T16:20:52;0.50;;;0.50;;
13764;SDS011;6953;48.810;9.204;2022-10-31T16:23:20;0.50;;;0.50;;
13764;SDS011;6953;48.810;9.204;2022-10-31T16:25:47;0.60;;;0.60;;
13764;SDS011;6953;48.810;9.204;2022-10-31T16:28:17;0.50;;;0.50;;
13764;SDS011;6953;48.810;9.204;2022-10-31T16:30:49;0.50;;;0.50;;
13764;SDS011;6953;48.810;9.204;2022-10-31T16:35:55;0.60;;;0.60;;
13764;SDS011;6953;48.810;9.204;2022-10-31T16:38:21;0.50;;;0.50;;
13764;SDS011;6953;48.810;9.204;2022-10-31T16:40:47;0.60;;;0.60;;
13764;SDS011;6953;48.810;9.204;2022-10-31T16:43:14;0.50;;;0.50;;
13764;SDS011;6953;48.810;9.204;2022-10-31T16:45:46;0.63;;;0.63;;
13764;SDS011;6953;48.810;9.204;2022-10-31T16:48:16;0.60;;;0.60;;
13764;SDS011;6953;48.810;9.204;2022-10-31T16:50:45;0.50;;;0.50;;
13764;SDS011;6953;48.810;9.204;2022-10-31T16:53:11;0.60;;;0.60;;
13764;SDS011;6953;48.810;9.204;2022-10-31T16:55:43;0.60;;;0.60;;
13764;SDS011;6953;48.810;9.204;2022-10-31T16:58:15;0.60;;;0.60;;
13764;SDS011;6953;48.810;9.204;2022-10-31T17:00:44;0.52;;;0.52;;
13764;SDS011;6953;48.810;9.204;2022-10-31T17:03:09;0.52;;;0.52;;
13764;SDS011;6953;48.810;9.204;2022-10-31T17:05:35;0.70;;;0.70;;
13764;SDS011;6953;48.810;9.204;2022-10-31T17:08:02;0.57;;;0.57;;
13764;SDS011;6953;48.810;9.204;2022-10-31T17:10:28;0.40;;;0.40;;
13764;SDS011;6953;48.810;9.204;2022-10-31T17:12:54;0.60;;;0.60;;
13764;SDS011;6953;48.810;9.204;2022-10-31T17:15:25;0.60;;;0.60;;
13764;SDS011;6953;48.810;9.204;2022-10-31T17:17:52;0.60;;;0.60;;
13764;SDS011;6953;48.810;9.204;2022-10-31T17:20:21;0.60;;;0.60;;
13764;SDS011;6953;48.810;9.204;2022-10-31T17:22:49;0.60;;;0.60;;
13764;SDS011;6953;48.810;9.204;2022-10-31T17:25:16;0.60;;;0.60;;
13764;SDS011;6953;48.810;9.204;2022-10-31T17:27:52;0.68;;;0.68;;
13764;SDS011;6953;48.810;9.204;2022-10-31T17:30:18;0.50;;;0.50;;
13764;SDS011;6953;48.810;9.204;2022-10-31T17:32:45;0.60;;;0.60;;
13764;SDS011;6953;48.810;9.204;2022-10-31T17:35:11;0.60;;;0.60;;
13764;SDS011;6953;48.810;9.204;2022-10-31T17:37:38;0.60;;;0.60;;
13764;SDS011;6953;48.810;9.204;2022-10-31T17:40:04;0.60;;;0.60;;
13764;SDS011;6953;48.810;9.204;2022-10-31T17:42:30;0.60;;;0.60;;
13764;SDS011;6953;48.810;9.204;2022-10-31T17:44:56;0.50;;;0.50;;
13764;SDS011;6953;48.810;9.204;2022-10-31T17:47:21;0.60;;;0.60;;
13764;SDS011;6953;48.810;9.204;2022-10-31T17:49:47;0.68;;;0.68;;
13764;SDS011;6953;48.810;9.204;2022-10-31T17:52:12;0.70;;;0.70;;
13764;SDS011;6953;48.810;9.204;2022-10-31T17:54:38;0.60;;;0.60;;
13764;SDS011;6953;48.810;9.204;2022-10-31T17:57:03;0.68;;;0.68;;
13764;SDS011;6953;48.810;9.204;2022-10-31T17:59:28;0.70;;;0.70;;
13764;SDS011;6953;48.810;9.204;2022-10-31T18:01:54;0.60;;;0.60;;
13764;SDS011;6953;48.810;9.204;2022-10-31T18:04:24;0.60;;;0.60;;